Date,TemperatureHighF,TemperatureAvgF,TemperatureLowF,DewpointHighF,DewpointAvgF,DewpointLowF,HumidityHigh,HumidityAvg,HumidityLow,PressureMaxIn,PressureMinIn,WindSpeedMaxMPH,WindSpeedAvgMPH,GustSpeedMaxMPH,PrecipitationSumIn
2013-2-1,32,27,23,12,6,0,55,40,36,30.14,29.75,22,4,22,0.00
2013-2-2,31,23,17,16,6,-2,76,47,36,30.30,30.05,21,3,21,0.00
2013-2-3,33,25,18,22,16,11,86,69,45,30.05,29.78,7,0,7,0.02
2013-2-4,31,25,20,19,7,1,77,47,36,29.97,29.80,20,2,20,0.00
2013-2-5,30,27,24,25,20,7,89,76,45,29.99,29.90,16,1,16,0.00
2013-2-6,39,32,26,30,19,2,94,64,36,30.35,29.92,15,1,15,0.03
2013-2-7,32,26,19,23,5,-4,74,42,36,30.53,30.34,12,1,12,0.00
2013-2-8,33,31,25,33,29,24,100,92,74,30.35,29.63,23,6,23,0.00
2013-2-9,33,28,23,25,18,3,100,73,36,30.13,29.72,22,4,22,0.02
2013-2-10,39,29,14,16,8,-7,100,42,36,30.47,30.33,11,1,11,0.04
2013-2-11,43,36,26,43,34,16,100,93,66,30.34,29.66,10,0,10,0.16
2013-2-12,45,39,34,39,31,23,100,74,51,29.95,29.71,13,2,13,0.00
2013-2-13,46,36,27,30,26,20,100,66,49,29.95,29.69,59,1,59,0.00
2013-2-14,46,37,29,38,30,9,100,78,50,29.99,29.71,11,1,11,0.02
2013-2-15,54,43,33,41,36,30,100,76,52,30.02,29.92,25,3,25,0.00
2013-2-16,40,35,29,35,26,11,100,71,48,29.96,29.72,11,2,11,0.02
2013-2-17,31,25,15,17,3,-7,100,39,36,29.92,29.61,22,6,22,0.00
2013-2-18,51,25,14,28,2,-8,100,38,36,30.21,29.99,15,2,15,0.00
2013-2-19,47,34,23,42,24,4,100,66,36,30.21,29.66,20,3,20,0.29
2013-2-20,38,30,23,36,12,0,100,48,36,29.92,29.68,18,4,18,0.00
2013-2-21,33,31,22,32,10,4,100,46,36,30.14,29.95,21,4,21,0.00
2013-2-22,38,34,23,38,24,12,100,68,57,30.39,30.25,12,5,12,0.00
2013-2-23,40,36,34,39,35,30,100,95,83,30.27,29.80,58,3,58,0.12
2013-2-24,48,38,32,43,35,25,100,87,62,29.95,29.73,12,2,12,0.00
2013-2-25,68,38,28,61,26,20,100,64,36,30.24,29.95,14,1,14,0.00
2013-2-26,40,35,31,36,30,24,100,84,66,30.31,29.93,21,4,21,0.10
2013-2-27,45,41,35,45,41,35,100,100,97,29.95,29.51,28,7,28,0.51
2013-2-28,50,42,38,44,39,31,100,87,67,29.63,29.55,12,1,12,0.00